createdAt,value
2018-10-16T00:01:33.105Z,100.00
2018-10-16T00:04:01.829Z,100.00
2018-10-16T00:06:30.596Z,100.00
2018-10-16T00:08:59.370Z,100.00
2018-10-16T00:11:28.152Z,100.00
2018-10-16T00:13:56.939Z,100.00
2018-10-16T00:16:25.672Z,100.00
2018-10-16T00:18:54.392Z,100.00
2018-10-16T00:21:23.095Z,100.00
2018-10-16T00:23:51.804Z,100.00
2018-10-16T00:26:20.514Z,100.00
2018-10-16T00:28:49.179Z,100.00
2018-10-16T00:31:17.871Z,100.00
2018-10-16T00:33:46.578Z,100.00
2018-10-16T00:36:15.318Z,100.00
2018-10-16T00:38:44.019Z,100.00
2018-10-16T00:41:12.734Z,100.00
2018-10-16T00:43:41.439Z,100.00
2018-10-16T00:46:10.147Z,100.00
2018-10-16T00:48:38.864Z,100.00
2018-10-16T00:51:07.597Z,100.00
2018-10-16T00:53:36.583Z,100.00
2018-10-16T00:56:05.453Z,100.00
2018-10-16T00:58:34.179Z,100.00
2018-10-16T01:01:02.942Z,100.00
2018-10-16T01:03:31.643Z,100.00
2018-10-16T01:06:00.380Z,100.00
2018-10-16T01:08:29.101Z,100.00
2018-10-16T01:10:57.813Z,100.00
2018-10-16T01:13:26.548Z,100.00
2018-10-16T01:15:55.236Z,100.00
2018-10-16T01:18:23.972Z,100.00
2018-10-16T01:20:52.690Z,100.00
2018-10-16T01:23:21.409Z,100.00
2018-10-16T01:25:50.120Z,100.00
2018-10-16T01:28:18.811Z,100.00
2018-10-16T01:30:47.520Z,100.00
2018-10-16T01:33:16.238Z,100.00
2018-10-16T01:35:44.929Z,100.00
2018-10-16T01:38:13.634Z,100.00
2018-10-16T01:40:42.319Z,100.00
2018-10-16T01:43:11.028Z,100.00
2018-10-16T01:45:39.756Z,100.00
2018-10-16T01:48:08.464Z,100.00
2018-10-16T01:50:37.160Z,100.00
2018-10-16T01:53:05.891Z,100.00
2018-10-16T01:55:34.601Z,100.00
2018-10-16T01:58:03.332Z,100.00
2018-10-16T02:00:32.045Z,100.00
2018-10-16T02:03:00.760Z,100.00
2018-10-16T02:05:29.493Z,100.00
2018-10-16T02:07:58.187Z,100.00
2018-10-16T02:10:26.897Z,100.00
2018-10-16T02:12:55.597Z,100.00
2018-10-16T02:15:24.312Z,100.00
2018-10-16T02:17:53.053Z,100.00
2018-10-16T02:20:21.762Z,100.00
2018-10-16T02:22:50.536Z,100.00
2018-10-16T02:25:19.226Z,100.00
2018-10-16T02:27:47.921Z,100.00
2018-10-16T02:30:16.626Z,100.00
2018-10-16T02:32:45.341Z,100.00
2018-10-16T02:35:14.090Z,100.00
2018-10-16T02:37:42.837Z,100.00
2018-10-16T02:40:11.856Z,100.00
2018-10-16T02:42:41.060Z,100.00
2018-10-16T02:45:10.992Z,100.00
2018-10-16T02:47:40.303Z,100.00
2018-10-16T02:50:10.189Z,100.00
2018-10-16T02:52:38.922Z,100.00
2018-10-16T02:55:08.991Z,100.00
2018-10-16T02:57:37.686Z,100.00
2018-10-16T03:00:06.506Z,100.00
2018-10-16T03:02:35.197Z,100.00
2018-10-16T03:05:03.931Z,100.00
2018-10-16T03:07:32.632Z,100.00
2018-10-16T03:10:01.343Z,100.00
2018-10-16T03:12:30.061Z,100.00
2018-10-16T03:14:58.770Z,100.00
2018-10-16T03:17:27.464Z,100.00
2018-10-16T03:19:56.166Z,100.00
2018-10-16T03:22:24.889Z,100.00
2018-10-16T03:24:53.590Z,100.00
2018-10-16T03:27:22.296Z,100.00
2018-10-16T03:29:51.023Z,100.00
2018-10-16T03:32:19.744Z,100.00
2018-10-16T03:34:48.452Z,100.00
2018-10-16T03:37:17.157Z,100.00
2018-10-16T03:39:45.866Z,100.00
2018-10-16T03:42:14.586Z,100.00
2018-10-16T03:44:43.304Z,100.00
2018-10-16T03:47:11.997Z,100.00
2018-10-16T03:49:40.681Z,100.00
2018-10-16T03:52:09.386Z,100.00
2018-10-16T03:54:38.100Z,100.00
2018-10-16T03:57:06.916Z,100.00
2018-10-16T03:59:35.608Z,100.00
2018-10-16T04:02:04.347Z,100.00
2018-10-16T04:04:33.041Z,100.00
2018-10-16T04:07:01.754Z,100.00
2018-10-16T04:09:30.449Z,100.00
2018-10-16T04:11:59.199Z,100.00
2018-10-16T04:14:27.904Z,100.00
2018-10-16T04:16:56.611Z,100.00
2018-10-16T04:19:25.317Z,100.00
2018-10-16T04:21:54.022Z,100.00
2018-10-16T04:24:22.721Z,100.00
2018-10-16T04:26:51.448Z,100.00
2018-10-16T04:29:20.220Z,100.00
2018-10-16T04:31:48.903Z,100.00
2018-10-16T04:34:17.611Z,100.00
2018-10-16T04:36:46.311Z,100.00
2018-10-16T04:39:15.382Z,100.00
2018-10-16T04:41:44.186Z,100.00
2018-10-16T04:44:12.860Z,100.00
2018-10-16T04:46:41.563Z,100.00
2018-10-16T04:49:10.269Z,100.00
2018-10-16T04:51:38.971Z,100.00
2018-10-16T04:54:07.683Z,100.00
2018-10-16T04:56:36.372Z,100.00
2018-10-16T04:59:05.147Z,100.00
2018-10-16T05:01:33.949Z,100.00
2018-10-16T05:04:02.753Z,100.00
2018-10-16T05:06:31.437Z,100.00
2018-10-16T05:09:00.165Z,100.00
2018-10-16T05:11:32.104Z,100.00
2018-10-16T05:14:00.814Z,100.00
2018-10-16T05:16:29.503Z,100.00
2018-10-16T05:18:58.215Z,100.00
2018-10-16T05:21:26.954Z,100.00
2018-10-16T05:23:55.633Z,100.00
2018-10-16T05:26:24.342Z,100.00
2018-10-16T05:28:53.051Z,100.00
2018-10-16T05:31:21.869Z,100.00
2018-10-16T05:33:50.482Z,100.00
2018-10-16T05:36:19.191Z,100.00
2018-10-16T05:38:47.923Z,100.00
2018-10-16T05:41:16.642Z,100.00
2018-10-16T05:43:45.348Z,100.00
2018-10-16T05:46:14.041Z,100.00
2018-10-16T05:48:42.774Z,100.00
2018-10-16T05:51:11.500Z,100.00
2018-10-16T05:53:40.272Z,100.00
2018-10-16T05:56:08.990Z,100.00
2018-10-16T05:58:37.719Z,100.00
2018-10-16T06:01:06.488Z,100.00
2018-10-16T06:03:35.187Z,100.00
2018-10-16T06:06:03.892Z,100.00
2018-10-16T06:08:32.580Z,100.00
2018-10-16T06:11:01.340Z,100.00
2018-10-16T06:13:30.017Z,100.00
2018-10-16T06:15:58.827Z,100.00
2018-10-16T06:18:27.476Z,100.00
2018-10-16T06:20:56.186Z,100.00
2018-10-16T06:23:25.059Z,100.00
2018-10-16T06:25:53.869Z,100.00
2018-10-16T06:28:26.767Z,100.00
2018-10-16T06:30:55.617Z,100.00
2018-10-16T06:33:28.798Z,100.00
2018-10-16T06:35:57.600Z,100.00
2018-10-16T06:38:26.303Z,100.00
2018-10-16T06:40:55.228Z,100.00
2018-10-16T06:43:23.796Z,100.00
2018-10-16T06:45:52.644Z,100.00
2018-10-16T06:48:21.704Z,100.00
2018-10-16T06:50:50.193Z,100.00
2018-10-16T06:53:18.954Z,100.00
2018-10-16T06:55:47.701Z,100.00
2018-10-16T06:58:16.488Z,100.00
2018-10-16T07:00:45.217Z,100.00
2018-10-16T07:03:13.954Z,100.00
2018-10-16T07:05:42.696Z,100.00
2018-10-16T07:08:11.469Z,100.00
2018-10-16T07:10:40.217Z,100.00
2018-10-16T07:13:08.947Z,100.00
2018-10-16T07:15:37.688Z,100.00
2018-10-16T07:18:06.698Z,100.00
2018-10-16T07:20:35.477Z,100.00
2018-10-16T07:23:04.266Z,100.00
2018-10-16T07:25:33.017Z,100.00
2018-10-16T07:28:01.790Z,100.00
2018-10-16T07:30:30.554Z,100.00
2018-10-16T07:32:59.271Z,100.00
2018-10-16T07:35:28.060Z,100.00
2018-10-16T07:37:56.919Z,100.00
2018-10-16T07:40:25.552Z,100.00
2018-10-16T07:42:54.269Z,100.00
2018-10-16T07:45:22.988Z,100.00
2018-10-16T07:47:51.720Z,100.00
2018-10-16T07:50:20.487Z,100.00
2018-10-16T07:52:49.205Z,100.00
2018-10-16T07:55:17.897Z,100.00
2018-10-16T07:57:46.607Z,100.00
2018-10-16T08:00:15.317Z,100.00
2018-10-16T08:02:44.523Z,100.00
2018-10-16T08:05:13.395Z,100.00
2018-10-16T08:07:42.485Z,100.00
2018-10-16T08:10:12.731Z,100.00
2018-10-16T08:12:41.595Z,100.00
2018-10-16T08:15:10.834Z,100.00
2018-10-16T08:17:40.001Z,100.00
2018-10-16T08:20:09.002Z,100.00
2018-10-16T08:22:37.908Z,100.00
2018-10-16T08:25:06.979Z,100.00
2018-10-16T08:27:35.742Z,100.00
2018-10-16T08:30:04.796Z,100.00
2018-10-16T08:32:33.552Z,100.00
2018-10-16T08:35:02.325Z,100.00
2018-10-16T08:39:47.891Z,100.00
2018-10-16T08:42:32.293Z,100.00
2018-10-16T08:45:13.792Z,100.00
2018-10-16T08:47:53.563Z,100.00
2018-10-16T08:50:34.298Z,100.00
2018-10-16T08:53:03.358Z,100.00
2018-10-16T08:55:32.060Z,100.00
2018-10-16T08:58:01.152Z,100.00
2018-10-16T09:00:29.912Z,100.00
2018-10-16T09:02:58.608Z,100.00
2018-10-16T09:05:27.562Z,100.00
2018-10-16T09:07:56.479Z,100.00
2018-10-16T09:10:25.523Z,100.00
2018-10-16T09:12:54.313Z,100.00
2018-10-16T09:15:23.784Z,100.00
2018-10-16T09:17:52.558Z,100.00
2018-10-16T09:20:21.393Z,100.00
2018-10-16T09:22:50.157Z,100.00
2018-10-16T09:25:18.932Z,100.00
2018-10-16T09:27:47.693Z,100.00
2018-10-16T09:30:16.458Z,100.00
2018-10-16T09:32:45.233Z,100.00
2018-10-16T09:35:14.144Z,100.00
2018-10-16T09:37:42.962Z,100.00
2018-10-16T09:40:12.792Z,100.00
2018-10-16T09:42:41.575Z,100.00
2018-10-16T09:45:11.189Z,100.00
2018-10-16T09:47:40.233Z,100.00
2018-10-16T09:50:10.139Z,100.00
2018-10-16T09:52:38.939Z,100.00
2018-10-16T09:55:08.713Z,100.00
2018-10-16T09:57:37.520Z,100.00
2018-10-16T10:00:09.121Z,100.00
2018-10-16T10:02:37.832Z,100.00
2018-10-16T10:05:06.634Z,100.00
2018-10-16T10:07:35.416Z,100.00
2018-10-16T10:10:04.184Z,100.00
2018-10-16T10:12:32.912Z,100.00
2018-10-16T10:15:01.640Z,100.00
2018-10-16T10:17:30.420Z,100.00
2018-10-16T10:19:59.146Z,100.00
2018-10-16T10:22:27.864Z,100.00
2018-10-16T10:24:56.607Z,100.00
2018-10-16T10:27:25.294Z,100.00
2018-10-16T10:29:54.053Z,100.00
2018-10-16T10:32:22.809Z,100.00
2018-10-16T10:34:51.557Z,100.00
2018-10-16T10:37:20.272Z,100.00
2018-10-16T10:39:49.004Z,100.00
2018-10-16T10:42:17.750Z,100.00
2018-10-16T10:44:46.694Z,100.00
2018-10-16T10:47:15.651Z,100.00
2018-10-16T10:49:44.399Z,100.00
2018-10-16T10:52:13.114Z,100.00
2018-10-16T10:54:41.865Z,100.00
2018-10-16T10:57:10.771Z,100.00
2018-10-16T10:59:40.237Z,100.00
2018-10-16T11:02:09.012Z,100.00
2018-10-16T11:04:37.732Z,100.00
2018-10-16T11:07:06.608Z,100.00
2018-10-16T11:09:35.330Z,100.00
2018-10-16T11:12:04.081Z,100.00
2018-10-16T11:14:32.792Z,100.00
2018-10-16T11:17:01.531Z,100.00
2018-10-16T11:19:30.343Z,100.00
2018-10-16T11:21:59.016Z,100.00
2018-10-16T11:24:27.765Z,100.00
2018-10-16T11:26:56.598Z,100.00
2018-10-16T11:29:25.287Z,100.00
2018-10-16T11:31:54.003Z,100.00
2018-10-16T11:34:22.728Z,100.00
2018-10-16T11:36:51.477Z,100.00
2018-10-16T11:39:20.169Z,100.00
2018-10-16T11:41:48.900Z,100.00
2018-10-16T11:44:17.631Z,100.00
2018-10-16T11:46:46.392Z,100.00
2018-10-16T11:49:15.101Z,100.00
2018-10-16T11:51:43.820Z,100.00
2018-10-16T11:54:12.927Z,100.00
2018-10-16T11:56:41.782Z,100.00
2018-10-16T11:59:10.556Z,100.00
2018-10-16T12:01:39.455Z,100.00
2018-10-16T12:04:08.191Z,100.00
2018-10-16T12:06:37.139Z,100.00
2018-10-16T12:09:08.906Z,100.00
2018-10-16T12:11:38.258Z,100.00
2018-10-16T12:14:07.547Z,100.00
2018-10-16T12:16:41.373Z,100.00
2018-10-16T12:19:16.042Z,100.00
2018-10-16T12:21:44.731Z,100.00
2018-10-16T12:24:13.503Z,100.00
2018-10-16T12:26:42.204Z,100.00
2018-10-16T12:29:10.936Z,100.00
2018-10-16T12:31:39.686Z,100.00
2018-10-16T12:34:08.376Z,100.00
2018-10-16T12:36:37.111Z,100.00
2018-10-16T12:39:08.310Z,100.00
2018-10-16T12:41:37.044Z,100.00
2018-10-16T12:44:06.082Z,100.00
2018-10-16T12:46:34.849Z,100.00
2018-10-16T12:49:03.572Z,100.00
2018-10-16T12:51:32.325Z,100.00
2018-10-16T12:54:01.082Z,100.00
2018-10-16T12:56:29.863Z,100.00
2018-10-16T12:58:58.725Z,100.00
2018-10-16T13:01:27.640Z,100.00
2018-10-16T13:03:56.349Z,100.00
2018-10-16T13:06:25.068Z,100.00
2018-10-16T13:08:53.867Z,100.00
2018-10-16T13:11:22.534Z,100.00
2018-10-16T13:13:51.312Z,100.00
2018-10-16T13:16:20.026Z,100.00
2018-10-16T13:18:48.750Z,100.00
2018-10-16T13:21:17.455Z,100.00
2018-10-16T13:23:46.239Z,100.00
2018-10-16T13:26:14.972Z,100.00
2018-10-16T13:28:43.753Z,100.00
2018-10-16T13:31:12.543Z,100.00
2018-10-16T13:33:41.292Z,100.00
2018-10-16T13:36:10.022Z,100.00
2018-10-16T13:38:38.788Z,100.00
2018-10-16T13:41:07.512Z,100.00
2018-10-16T13:43:36.236Z,100.00
2018-10-16T13:46:05.194Z,100.00
2018-10-16T13:48:33.948Z,100.00
2018-10-16T13:51:02.651Z,100.00
2018-10-16T13:53:31.368Z,100.00
2018-10-16T13:56:00.121Z,100.00
2018-10-16T13:58:28.880Z,100.00
2018-10-16T14:00:57.630Z,100.00
2018-10-16T14:03:26.387Z,100.00
2018-10-16T14:05:55.141Z,100.00
2018-10-16T14:08:23.913Z,100.00
2018-10-16T14:10:52.652Z,100.00
2018-10-16T14:13:21.393Z,100.00
2018-10-16T14:15:50.097Z,100.00
2018-10-16T14:18:18.778Z,100.00
2018-10-16T14:20:47.528Z,100.00
2018-10-16T14:23:16.199Z,100.00
2018-10-16T14:25:44.920Z,100.00
2018-10-16T14:28:13.772Z,100.00
2018-10-16T14:30:42.420Z,100.00
2018-10-16T14:33:11.557Z,100.00
2018-10-16T14:35:40.304Z,100.00
2018-10-16T14:38:09.118Z,100.00
2018-10-16T14:40:37.837Z,100.00
2018-10-16T14:43:06.587Z,100.00
2018-10-16T14:45:35.387Z,100.00
2018-10-16T14:48:04.291Z,100.00
2018-10-16T14:50:32.944Z,100.00
2018-10-16T14:53:01.668Z,100.00
2018-10-16T14:55:30.422Z,100.00
2018-10-16T14:57:59.162Z,100.00
2018-10-16T15:00:27.853Z,100.00
2018-10-16T15:02:56.552Z,100.00
2018-10-16T15:05:25.590Z,100.00
2018-10-16T15:07:54.476Z,100.00
2018-10-16T15:10:23.266Z,100.00
2018-10-16T15:12:51.937Z,98.02
2018-10-16T15:15:20.692Z,96.24
2018-10-16T15:17:49.429Z,93.28
2018-10-16T15:20:18.130Z,94.02
2018-10-16T15:22:46.900Z,86.88
2018-10-16T15:25:15.660Z,85.13
2018-10-16T15:27:44.371Z,85.61
2018-10-16T15:30:13.101Z,87.09
2018-10-16T15:32:41.967Z,85.78
2018-10-16T15:35:11.468Z,87.41
2018-10-16T15:37:40.315Z,86.32
2018-10-16T15:40:10.484Z,85.48
2018-10-16T15:42:39.203Z,83.84
2018-10-16T15:45:09.543Z,84.18
2018-10-16T15:47:38.361Z,83.03
2018-10-16T15:50:07.745Z,83.14
2018-10-16T15:52:36.491Z,83.91
2018-10-16T15:55:05.918Z,83.18
2018-10-16T15:57:34.691Z,82.74
2018-10-16T16:00:03.582Z,84.07
2018-10-16T16:02:32.444Z,84.76
2018-10-16T16:05:01.107Z,85.60
2018-10-16T16:07:29.946Z,86.35
2018-10-16T16:09:58.753Z,87.40
2018-10-16T16:12:27.506Z,87.26
2018-10-16T16:14:56.263Z,87.00
2018-10-16T16:17:25.081Z,87.38
2018-10-16T16:19:53.873Z,88.00
2018-10-16T16:22:22.772Z,88.15
2018-10-16T16:24:51.528Z,87.98
2018-10-16T16:27:20.330Z,88.04
2018-10-16T16:29:49.087Z,88.61
2018-10-16T16:32:18.079Z,89.16
2018-10-16T16:34:46.845Z,89.95
2018-10-16T16:37:15.585Z,90.40
2018-10-16T16:39:44.381Z,91.10
2018-10-16T16:42:13.109Z,91.72
2018-10-16T16:44:41.890Z,92.49
2018-10-16T16:47:10.775Z,92.85
2018-10-16T16:49:39.481Z,93.74
2018-10-16T16:52:08.226Z,94.30
2018-10-16T16:54:36.970Z,94.71
2018-10-16T16:57:05.920Z,95.40
2018-10-16T16:59:34.734Z,95.83
2018-10-16T17:02:03.647Z,96.54
2018-10-16T17:04:32.488Z,96.84
2018-10-16T17:07:01.171Z,97.29
2018-10-16T17:09:30.273Z,97.99
2018-10-16T17:11:59.138Z,98.60
2018-10-16T17:14:28.036Z,99.22
2018-10-16T17:16:56.817Z,99.16
2018-10-16T17:19:25.572Z,99.76
2018-10-16T17:21:54.691Z,100.00
2018-10-16T17:24:23.510Z,100.00
2018-10-16T17:26:52.426Z,100.00
2018-10-16T17:29:21.105Z,100.00
2018-10-16T17:31:50.502Z,100.00
2018-10-16T17:34:19.380Z,100.00
2018-10-16T17:36:48.131Z,100.00
2018-10-16T17:39:16.956Z,100.00
2018-10-16T17:41:45.688Z,100.00
2018-10-16T17:44:14.426Z,100.00
2018-10-16T17:46:43.199Z,100.00
2018-10-16T17:49:11.967Z,100.00
2018-10-16T17:51:40.691Z,100.00
2018-10-16T17:54:09.487Z,100.00
2018-10-16T17:56:38.253Z,100.00
2018-10-16T17:59:06.977Z,100.00
2018-10-16T18:01:35.855Z,100.00
2018-10-16T18:04:04.647Z,100.00
2018-10-16T18:06:33.455Z,100.00
2018-10-16T18:09:02.316Z,100.00
2018-10-16T18:11:31.109Z,100.00
2018-10-16T18:13:59.893Z,100.00
2018-10-16T18:16:28.656Z,100.00
2018-10-16T18:18:57.417Z,100.00
2018-10-16T18:21:26.166Z,100.00
2018-10-16T18:23:54.950Z,100.00
2018-10-16T18:26:23.916Z,100.00
2018-10-16T18:28:52.826Z,100.00
2018-10-16T18:31:21.610Z,100.00
2018-10-16T18:33:50.371Z,100.00
2018-10-16T18:36:19.160Z,100.00
2018-10-16T18:38:47.978Z,100.00
2018-10-16T18:41:16.730Z,100.00
2018-10-16T18:43:45.660Z,100.00
2018-10-16T18:46:14.526Z,100.00
2018-10-16T18:48:43.516Z,100.00
2018-10-16T18:51:12.423Z,100.00
2018-10-16T18:53:41.093Z,100.00
2018-10-16T18:56:09.862Z,100.00
2018-10-16T18:58:38.603Z,100.00
2018-10-16T19:01:07.330Z,100.00
2018-10-16T19:03:36.058Z,100.00
2018-10-16T19:06:04.797Z,100.00
2018-10-16T19:08:33.583Z,100.00
2018-10-16T19:11:02.344Z,100.00
2018-10-16T19:13:31.157Z,100.00
2018-10-16T19:15:59.937Z,100.00
2018-10-16T19:18:28.667Z,100.00
2018-10-16T19:20:57.446Z,100.00
2018-10-16T19:23:26.116Z,100.00
2018-10-16T19:25:54.852Z,100.00
2018-10-16T19:28:23.598Z,100.00
2018-10-16T19:30:52.353Z,100.00
2018-10-16T19:33:21.047Z,100.00
2018-10-16T19:35:49.788Z,100.00
2018-10-16T19:38:18.497Z,100.00
2018-10-16T19:40:47.945Z,100.00
2018-10-16T19:43:16.677Z,100.00
2018-10-16T19:45:45.496Z,100.00
2018-10-16T19:48:14.170Z,100.00
2018-10-16T19:50:42.868Z,100.00
2018-10-16T19:53:11.569Z,100.00
2018-10-16T19:55:40.249Z,100.00
2018-10-16T19:58:08.940Z,100.00
2018-10-16T20:00:37.700Z,100.00
2018-10-16T20:03:06.510Z,100.00
2018-10-16T20:05:35.223Z,100.00
2018-10-16T20:08:04.020Z,100.00
2018-10-16T20:10:32.774Z,100.00
2018-10-16T20:13:01.481Z,100.00
2018-10-16T20:15:30.269Z,100.00
2018-10-16T20:17:58.940Z,100.00
2018-10-16T20:20:27.628Z,100.00
2018-10-16T20:22:56.396Z,100.00
2018-10-16T20:25:25.185Z,100.00
2018-10-16T20:27:53.881Z,100.00
2018-10-16T20:30:22.576Z,100.00
2018-10-16T20:32:51.260Z,100.00
2018-10-16T20:35:19.952Z,100.00
2018-10-16T20:37:48.661Z,100.00
2018-10-16T20:40:17.447Z,100.00
2018-10-16T20:42:46.156Z,100.00
2018-10-16T20:45:14.870Z,100.00
2018-10-16T20:47:43.620Z,100.00
2018-10-16T20:50:12.334Z,100.00
2018-10-16T20:52:41.034Z,100.00
2018-10-16T20:55:10.263Z,100.00
2018-10-16T20:57:38.975Z,100.00
2018-10-16T21:00:08.232Z,100.00
2018-10-16T21:02:37.414Z,100.00
2018-10-16T21:05:07.302Z,100.00
2018-10-16T21:07:35.914Z,100.00
2018-10-16T21:10:04.860Z,100.00
2018-10-16T21:12:33.625Z,100.00
2018-10-16T21:15:02.367Z,100.00
2018-10-16T21:17:31.108Z,100.00
2018-10-16T21:19:59.797Z,100.00
2018-10-16T21:22:28.517Z,100.00
2018-10-16T21:24:57.218Z,100.00
2018-10-16T21:27:25.931Z,100.00
2018-10-16T21:29:54.636Z,100.00
2018-10-16T21:32:23.333Z,100.00
2018-10-16T21:34:52.032Z,100.00
2018-10-16T21:37:20.732Z,100.00
2018-10-16T21:39:49.452Z,100.00
2018-10-16T21:42:18.153Z,100.00
2018-10-16T21:44:46.837Z,100.00
2018-10-16T21:47:15.609Z,100.00
2018-10-16T21:49:44.220Z,100.00
2018-10-16T21:52:12.902Z,100.00
2018-10-16T21:54:41.599Z,100.00
2018-10-16T21:57:10.272Z,100.00
2018-10-16T21:59:39.081Z,100.00
2018-10-16T22:02:13.024Z,100.00
2018-10-16T22:04:41.745Z,100.00
2018-10-16T22:07:10.651Z,100.00
2018-10-16T22:09:39.290Z,100.00
2018-10-16T22:12:08.005Z,100.00
2018-10-16T22:14:36.729Z,100.00
2018-10-16T22:17:05.724Z,100.00
2018-10-16T22:19:34.425Z,100.00
2018-10-16T22:22:03.111Z,100.00
2018-10-16T22:24:31.776Z,100.00
2018-10-16T22:27:00.457Z,100.00
2018-10-16T22:29:29.200Z,100.00
2018-10-16T22:31:57.856Z,100.00
2018-10-16T22:34:26.539Z,100.00
2018-10-16T22:36:55.256Z,100.00
2018-10-16T22:39:23.938Z,100.00
2018-10-16T22:41:52.636Z,100.00
2018-10-16T22:44:21.316Z,100.00
2018-10-16T22:46:50.051Z,100.00
2018-10-16T22:49:18.735Z,100.00
2018-10-16T22:51:47.420Z,100.00
2018-10-16T22:54:16.100Z,100.00
2018-10-16T22:56:44.801Z,100.00
2018-10-16T22:59:13.496Z,100.00
2018-10-16T23:01:42.177Z,100.00
2018-10-16T23:04:10.869Z,100.00
2018-10-16T23:06:39.543Z,100.00
2018-10-16T23:09:09.209Z,100.00
2018-10-16T23:11:38.020Z,100.00
2018-10-16T23:14:06.873Z,100.00
2018-10-16T23:16:35.631Z,100.00
2018-10-16T23:19:04.414Z,100.00
2018-10-16T23:21:33.059Z,100.00
2018-10-16T23:24:01.775Z,100.00
2018-10-16T23:26:30.467Z,100.00
2018-10-16T23:28:59.207Z,100.00
2018-10-16T23:31:27.901Z,100.00
2018-10-16T23:33:56.583Z,100.00
2018-10-16T23:36:25.325Z,100.00
2018-10-16T23:38:54.003Z,100.00
2018-10-16T23:41:22.733Z,100.00
2018-10-16T23:43:51.437Z,100.00
2018-10-16T23:46:20.157Z,100.00
2018-10-16T23:48:48.841Z,100.00
2018-10-16T23:51:17.520Z,100.00
2018-10-16T23:53:46.215Z,100.00
2018-10-16T23:56:14.880Z,100.00
2018-10-16T23:58:43.573Z,100.00
